Time;durP1;ratioP1;P1;durP2;ratioP2;P2;SDS_P1;SDS_P2;PMS_P1;PMS_P2;Temp;Humidity;BMP_temperature;BMP_pressure;BME280_temperature;BME280_humidity;BME280_pressure;Samples;Min_cycle;Max_cycle;Signal;HPM_P1;HPM_P2
2022/06/06 00:01:46;;;;;;;12.40;10.52;;;20.40;62.30;;;;;;5053071;28;20268;-67
2022/06/06 00:04:12;;;;;;;12.80;10.88;;;20.40;62.20;;;;;;5053451;28;20186;-68
2022/06/06 00:06:39;;;;;;;11.77;10.57;;;20.30;62.20;;;;;;5052620;28;20176;-68
2022/06/06 00:09:05;;;;;;;11.20;10.00;;;20.30;62.20;;;;;;5052609;28;20225;-67
2022/06/06 00:11:32;;;;;;;11.93;10.70;;;20.30;62.20;;;;;;5053211;28;20661;-67
2022/06/06 00:13:57;;;;;;;12.48;11.18;;;20.40;62.30;;;;;;5052404;28;20190;-66
2022/06/06 00:16:23;;;;;;;13.77;11.13;;;20.30;62.10;;;;;;5053182;28;20582;-67
2022/06/06 00:18:48;;;;;;;12.38;11.07;;;20.30;62.00;;;;;;5052860;28;20179;-67
2022/06/06 00:21:14;;;;;;;13.48;11.65;;;20.30;62.10;;;;;;5052311;28;20179;-67
2022/06/06 00:23:40;;;;;;;14.48;11.57;;;20.30;62.10;;;;;;5052687;28;20175;-67
2022/06/06 00:26:07;;;;;;;14.60;11.68;;;20.30;62.20;;;;;;5052062;28;20175;-67
2022/06/06 00:28:34;;;;;;;12.98;11.40;;;20.30;62.10;;;;;;5053063;28;20183;-67
2022/06/06 00:34:48;;;;;;;14.02;12.40;;;20.30;62.00;;;;;;5052911;28;20183;-68
2022/06/06 00:36:33;;;;;;;12.18;10.85;;;20.30;62.00;;;;;;5052904;28;20197;-67
2022/06/06 00:38:59;;;;;;;12.85;11.45;;;20.30;62.00;;;;;;5052710;28;20343;-66
2022/06/06 00:41:24;;;;;;;14.10;10.93;;;20.30;61.90;;;;;;5052290;28;20708;-67
2022/06/06 00:44:07;;;;;;;12.52;11.23;;;20.30;61.90;;;;;;5052583;28;20183;-67
2022/06/06 00:46:33;;;;;;;13.45;12.02;;;20.30;61.90;;;;;;5052699;28;20258;-67
2022/06/06 00:48:59;;;;;;;14.10;11.88;;;20.20;61.80;;;;;;5033927;28;20202;-68
2022/06/06 00:51:24;;;;;;;14.30;12.48;;;20.30;61.90;;;;;;5051273;28;20638;-68
2022/06/06 00:53:55;;;;;;;12.55;10.88;;;20.30;61.80;;;;;;5052231;28;20183;-68
2022/06/06 00:56:34;;;;;;;13.60;11.27;;;20.30;61.80;;;;;;5050621;28;20186;-67
2022/06/06 00:59:04;;;;;;;14.40;11.77;;;20.30;61.80;;;;;;5051143;28;20248;-67
2022/06/06 01:01:31;;;;;;;15.70;11.98;;;20.30;61.80;;;;;;5050037;28;20214;-67
2022/06/06 01:04:00;;;;;;;14.27;12.15;;;20.20;61.80;;;;;;5052388;28;20186;-67
2022/06/06 01:06:25;;;;;;;16.38;12.45;;;20.20;61.80;;;;;;5051047;28;20210;-67
2022/06/06 01:08:51;;;;;;;12.90;11.57;;;20.20;61.80;;;;;;5049969;28;20221;-67
2022/06/06 01:11:17;;;;;;;12.32;11.02;;;20.20;61.70;;;;;;5052225;28;20461;-66
2022/06/06 01:13:42;;;;;;;13.85;12.35;;;20.20;61.70;;;;;;5052324;28;20182;-67
2022/06/06 01:16:47;;;;;;;13.23;11.32;;;20.20;61.80;;;;;;5033523;28;20210;-67
2022/06/06 01:19:45;;;;;;;12.02;10.80;;;20.20;61.70;;;;;;5050968;28;20194;-67
2022/06/06 01:22:21;;;;;;;12.70;11.40;;;20.20;61.60;;;;;;5046421;28;20199;-66
2022/06/06 01:25:10;;;;;;;12.98;11.57;;;20.20;61.70;;;;;;5050271;28;20312;-66
2022/06/06 01:27:53;;;;;;;13.18;11.80;;;20.20;61.70;;;;;;5050454;28;20225;-67
2022/06/06 01:30:24;;;;;;;13.38;11.73;;;20.20;61.60;;;;;;5049699;28;20174;-67
2022/06/06 01:32:54;;;;;;;14.07;11.10;;;20.20;61.60;;;;;;5034216;28;20225;-69
2022/06/06 01:35:36;;;;;;;13.48;11.50;;;20.20;61.60;;;;;;5034478;28;20175;-67
2022/06/06 01:38:01;;;;;;;12.60;11.30;;;20.20;61.60;;;;;;5051071;28;20187;-66
2022/06/06 01:40:38;;;;;;;13.68;11.13;;;20.20;61.50;;;;;;5051663;28;20240;-67
2022/06/06 01:43:12;;;;;;;13.32;11.27;;;20.20;61.50;;;;;;5051672;28;20209;-67
2022/06/06 01:45:44;;;;;;;11.90;10.52;;;20.20;61.60;;;;;;5049557;28;20203;-68
2022/06/06 01:48:16;;;;;;;13.95;11.65;;;20.20;61.50;;;;;;5033856;28;20635;-68
2022/06/06 01:50:43;;;;;;;12.77;11.48;;;20.20;61.60;;;;;;5049243;28;20993;-67
2022/06/06 01:53:10;;;;;;;13.40;12.00;;;20.20;61.60;;;;;;5050130;28;20302;-68
2022/06/06 01:55:37;;;;;;;12.88;10.93;;;20.20;61.60;;;;;;5051132;28;20202;-68
2022/06/06 01:58:07;;;;;;;11.98;10.77;;;20.20;61.60;;;;;;5050859;28;20179;-67
2022/06/06 02:00:34;;;;;;;12.57;11.27;;;20.10;61.50;;;;;;5050269;28;20182;-68
2022/06/06 02:02:59;;;;;;;13.52;10.80;;;20.20;61.60;;;;;;5050713;28;20239;-67
2022/06/06 02:05:25;;;;;;;11.73;10.52;;;20.20;61.50;;;;;;5050605;28;20175;-68
2022/06/06 02:07:51;;;;;;;11.13;9.95;;;20.10;61.50;;;;;;5050983;28;20217;-67
2022/06/06 02:10:17;;;;;;;11.68;10.00;;;20.20;61.50;;;;;;5051538;28;20175;-68
2022/06/06 02:12:43;;;;;;;10.43;9.38;;;20.10;61.40;;;;;;5050372;28;20276;-67
2022/06/06 02:15:10;;;;;;;11.93;10.73;;;20.10;61.40;;;;;;5051223;28;20630;-67
2022/06/06 02:17:35;;;;;;;11.27;9.45;;;20.10;61.40;;;;;;5050934;28;20638;-67
2022/06/06 02:20:04;;;;;;;11.45;10.20;;;20.10;61.40;;;;;;5050312;28;20168;-66
2022/06/06 02:22:30;;;;;;;11.50;10.30;;;20.10;61.40;;;;;;5051571;28;20182;-66
2022/06/06 02:24:55;;;;;;;11.60;10.40;;;20.10;61.40;;;;;;5051956;28;20251;-67
2022/06/06 02:27:21;;;;;;;11.40;10.10;;;20.10;61.30;;;;;;5051461;28;20578;-67
2022/06/06 02:29:46;;;;;;;11.77;10.13;;;20.10;61.30;;;;;;5052045;28;20178;-68
2022/06/06 02:32:12;;;;;;;12.15;10.02;;;20.10;61.40;;;;;;5053802;28;20217;-67
2022/06/06 02:34:38;;;;;;;10.85;9.25;;;20.10;61.40;;;;;;5055149;28;20171;-66
2022/06/06 02:37:04;;;;;;;10.25;9.25;;;20.10;61.40;;;;;;5056025;28;20229;-67
2022/06/06 02:39:29;;;;;;;10.35;9.27;;;20.10;61.40;;;;;;5055996;28;20536;-66
2022/06/06 02:41:56;;;;;;;10.18;9.10;;;20.10;61.40;;;;;;5055305;28;20175;-67
2022/06/06 02:44:22;;;;;;;10.90;9.80;;;20.10;61.40;;;;;;5056134;28;20181;-67
2022/06/06 02:46:48;;;;;;;10.68;9.57;;;20.10;61.40;;;;;;5054913;28;20262;-67
2022/06/06 02:49:13;;;;;;;11.45;9.45;;;20.10;61.40;;;;;;5055908;28;20179;-68
2022/06/06 02:51:39;;;;;;;9.60;8.60;;;20.10;61.30;;;;;;5055609;28;20257;-68
2022/06/06 02:54:04;;;;;;;10.25;9.20;;;20.00;61.30;;;;;;5055384;28;20575;-68
2022/06/06 02:56:30;;;;;;;10.65;9.55;;;20.10;61.30;;;;;;5055953;28;20628;-67
2022/06/06 02:58:56;;;;;;;11.75;9.35;;;20.10;61.40;;;;;;5055579;28;20167;-66
2022/06/06 03:01:21;;;;;;;10.93;9.82;;;20.10;61.30;;;;;;5037267;28;20178;-67
2022/06/06 03:03:48;;;;;;;10.35;9.25;;;20.00;61.40;;;;;;5055500;28;20179;-68
2022/06/06 03:06:41;;;;;;;10.85;9.75;;;20.10;61.40;;;;;;5055562;28;20631;-67
2022/06/06 03:09:10;;;;;;;10.70;9.63;;;20.00;61.30;;;;;;5053943;28;20171;-69
2022/06/06 03:11:44;;;;;;;11.10;9.70;;;20.10;61.40;;;;;;5055197;28;20548;-67
2022/06/06 03:14:29;;;;;;;10.70;9.70;;;20.00;61.30;;;;;;5055277;28;20655;-66
2022/06/06 03:23:23;;;;;;;13.00;10.52;;;20.00;61.30;;;;;;5054217;28;20189;-65
2022/06/06 03:26:17;;;;;;;10.98;9.88;;;20.00;61.40;;;;;;5053675;28;20621;-66
2022/06/06 03:29:24;;;;;;;11.38;10.18;;;20.00;61.30;;;;;;5054861;28;20171;-67
2022/06/06 03:32:11;;;;;;;10.20;9.23;;;20.00;61.30;;;;;;5051419;28;20689;-67
2022/06/06 03:34:52;;;;;;;11.52;10.27;;;20.00;61.30;;;;;;5054778;28;20638;-66
2022/06/06 03:37:35;;;;;;;11.20;9.82;;;20.00;61.30;;;;;;5054258;28;20657;-66
2022/06/06 03:40:20;;;;;;;12.68;10.40;;;20.00;61.30;;;;;;5053790;28;20320;-66
2022/06/06 03:43:10;;;;;;;10.70;9.55;;;20.00;61.30;;;;;;5052898;28;20642;-66
2022/06/06 03:45:57;;;;;;;11.20;10.10;;;20.00;61.30;;;;;;5054796;28;20237;-67
2022/06/06 03:48:40;;;;;;;11.05;9.85;;;20.00;61.30;;;;;;5055189;28;20197;-67
2022/06/06 03:51:33;;;;;;;10.85;9.82;;;20.00;61.30;;;;;;5052742;28;20202;-67
2022/06/06 03:54:12;;;;;;;10.77;9.63;;;20.00;61.30;;;;;;5053406;28;20175;-67
2022/06/06 03:56:50;;;;;;;14.40;10.93;;;20.00;61.30;;;;;;5053314;28;20266;-66
2022/06/06 03:59:15;;;;;;;11.70;10.27;;;20.00;61.30;;;;;;5053814;28;20653;-67
2022/06/06 04:01:41;;;;;;;11.48;10.30;;;20.00;61.30;;;;;;5054257;28;20214;-66
2022/06/06 04:04:07;;;;;;;12.32;10.63;;;20.00;61.30;;;;;;5053851;28;20179;-66
2022/06/06 04:06:33;;;;;;;10.93;9.73;;;20.00;62.30;;;;;;5054400;28;20172;-66
2022/06/06 04:08:58;;;;;;;11.38;10.25;;;20.00;61.40;;;;;;5054013;28;20171;-66
2022/06/06 04:11:50;;;;;;;11.52;9.70;;;20.00;61.40;;;;;;5053828;28;20171;-66
2022/06/06 04:14:34;;;;;;;12.07;10.82;;;20.00;61.40;;;;;;5053367;28;20266;-66
2022/06/06 04:17:24;;;;;;;11.05;9.95;;;20.00;61.50;;;;;;5037232;28;20190;-66
2022/06/06 04:20:16;;;;;;;12.95;10.68;;;20.00;61.60;;;;;;5052157;28;20281;-66
2022/06/06 04:23:06;;;;;;;11.57;10.38;;;20.00;61.60;;;;;;5052927;28;20201;-68
2022/06/06 04:25:53;;;;;;;11.50;10.38;;;20.00;61.60;;;;;;5053389;28;20266;-66
2022/06/06 04:28:39;;;;;;;11.52;10.32;;;20.00;61.60;;;;;;5054210;28;20175;-66
2022/06/06 04:31:12;;;;;;;11.77;10.45;;;20.00;61.70;;;;;;5053176;28;20232;-67
2022/06/06 04:34:04;;;;;;;11.13;10.02;;;20.00;61.70;;;;;;5051805;28;20202;-68
2022/06/06 04:36:52;;;;;;;10.68;9.57;;;20.00;61.70;;;;;;5045420;28;20187;-66
2022/06/06 04:39:37;;;;;;;11.52;10.32;;;20.00;61.70;;;;;;5053051;28;20645;-66
2022/06/06 04:42:10;;;;;;;11.50;10.05;;;20.00;61.70;;;;;;5052806;28;20179;-66
2022/06/06 04:44:54;;;;;;;11.20;9.48;;;19.90;61.70;;;;;;5052300;28;20175;-65
2022/06/06 04:47:39;;;;;;;11.38;10.18;;;20.00;61.80;;;;;;5051968;28;20187;-67
2022/06/06 04:50:16;;;;;;;11.63;10.43;;;20.00;61.80;;;;;;5053790;28;20183;-67
2022/06/06 04:52:45;;;;;;;12.30;10.98;;;20.00;61.70;;;;;;5053279;28;20223;-67
2022/06/06 04:55:10;;;;;;;14.00;10.98;;;19.90;61.60;;;;;;5051531;28;20183;-67
2022/06/06 04:57:37;;;;;;;14.18;11.30;;;19.90;61.70;;;;;;5053336;28;20175;-66
2022/06/06 05:00:05;;;;;;;12.60;10.98;;;19.90;61.70;;;;;;5053533;28;20202;-65
2022/06/06 05:02:30;;;;;;;12.95;10.82;;;19.90;62.60;;;;;;5052546;28;20226;-66
2022/06/06 05:04:56;;;;;;;12.07;9.80;;;19.90;61.70;;;;;;5053090;28;20530;-66
2022/06/06 05:07:24;;;;;;;13.07;10.95;;;20.00;61.70;;;;;;5052551;28;20606;-67
2022/06/06 05:10:01;;;;;;;13.73;12.15;;;19.90;61.70;;;;;;5051974;28;20214;-66
2022/06/06 05:12:47;;;;;;;13.07;11.77;;;19.90;61.80;;;;;;5051956;28;20772;-66
2022/06/06 05:15:28;;;;;;;13.18;11.55;;;19.90;61.70;;;;;;5051290;28;20186;-66
2022/06/06 05:18:13;;;;;;;12.60;11.30;;;19.90;61.80;;;;;;5053088;28;20179;-65
2022/06/06 05:20:44;;;;;;;12.98;11.57;;;19.90;61.70;;;;;;5052651;28;20256;-65
2022/06/06 05:23:19;;;;;;;14.20;11.15;;;19.90;61.70;;;;;;5052182;28;20642;-65
2022/06/06 05:25:47;;;;;;;14.43;11.77;;;19.90;61.70;;;;;;5052942;28;20201;-66
2022/06/06 05:28:32;;;;;;;12.10;10.85;;;19.90;61.70;;;;;;5053325;28;20171;-66
2022/06/06 05:31:10;;;;;;;11.90;10.45;;;19.90;61.70;;;;;;5051577;28;20179;-67
2022/06/06 05:33:46;;;;;;;12.32;11.02;;;19.90;61.60;;;;;;5052890;28;20186;-66
2022/06/06 05:36:30;;;;;;;12.80;11.43;;;19.90;61.50;;;;;;5034935;28;20175;-66
2022/06/06 05:39:14;;;;;;;12.20;10.95;;;19.90;61.50;;;;;;5052678;28;20179;-65
2022/06/06 05:41:46;;;;;;;13.35;11.30;;;19.90;61.40;;;;;;5052535;28;20186;-65
2022/06/06 05:44:27;;;;;;;14.10;11.85;;;19.90;61.40;;;;;;5052058;28;20549;-67
2022/06/06 05:47:11;;;;;;;11.20;10.05;;;19.90;61.30;;;;;;5052462;28;20218;-66
2022/06/06 05:49:44;;;;;;;12.68;11.43;;;19.90;61.30;;;;;;5035413;28;20175;-67
2022/06/06 05:52:20;;;;;;;12.07;10.85;;;19.90;61.40;;;;;;5051607;28;20242;-67
2022/06/06 05:54:55;;;;;;;12.50;11.07;;;20.00;61.30;;;;;;5051315;28;20175;-67
2022/06/06 05:57:42;;;;;;;12.50;10.80;;;20.00;61.20;;;;;;5050524;28;20213;-66
2022/06/06 06:00:32;;;;;;;12.60;10.80;;;20.00;61.20;;;;;;5052613;28;20276;-66
2022/06/06 06:03:20;;;;;;;13.13;9.95;;;20.00;61.10;;;;;;5050852;28;20230;-66
2022/06/06 06:06:12;;;;;;;11.85;10.65;;;20.00;61.10;;;;;;5050371;28;20203;-67
2022/06/06 06:08:47;;;;;;;12.77;10.63;;;20.00;61.00;;;;;;5052150;28;20179;-66
2022/06/06 06:11:18;;;;;;;11.80;10.52;;;20.00;60.90;;;;;;5051774;28;20262;-66
2022/06/06 06:14:26;;;;;;;11.02;9.35;;;20.10;60.80;;;;;;5051956;28;20186;-66
2022/06/06 06:16:59;;;;;;;9.60;8.70;;;20.00;60.60;;;;;;5051601;28;20183;-66
2022/06/06 06:19:31;;;;;;;9.82;8.82;;;20.10;60.40;;;;;;5051800;28;20556;-67
2022/06/06 06:21:58;;;;;;;10.52;9.10;;;20.10;60.40;;;;;;5035014;28;20175;-67
2022/06/06 06:24:30;;;;;;;10.40;8.70;;;20.10;60.20;;;;;;5051209;28;20179;-67
2022/06/06 06:26:56;;;;;;;9.90;8.90;;;20.10;60.10;;;;;;5051394;28;20249;-67
2022/06/06 06:29:22;;;;;;;8.85;7.78;;;20.10;60.10;;;;;;5052314;28;20571;-66
2022/06/06 06:31:47;;;;;;;11.52;8.65;;;20.10;60.10;;;;;;5051222;28;20218;-67
2022/06/06 06:34:25;;;;;;;8.30;7.50;;;20.20;60.20;;;;;;5052256;28;20179;-67
2022/06/06 06:37:32;;;;;;;8.93;7.00;;;20.20;60.20;;;;;;5050637;28;20182;-67
2022/06/06 06:40:06;;;;;;;8.63;6.75;;;20.20;60.10;;;;;;5043327;28;20580;-66
2022/06/06 06:42:46;;;;;;;8.73;7.82;;;20.20;60.00;;;;;;5050882;28;20716;-66
2022/06/06 06:45:36;;;;;;;9.13;7.53;;;20.20;60.00;;;;;;5052095;28;20677;-67
2022/06/06 06:48:07;;;;;;;8.00;7.15;;;20.20;60.00;;;;;;5033840;28;20271;-68
2022/06/06 06:50:44;;;;;;;8.93;7.38;;;20.20;60.00;;;;;;5034768;28;20197;-68
2022/06/06 06:53:33;;;;;;;7.65;6.95;;;20.20;60.10;;;;;;5051323;28;20206;-68
2022/06/06 06:56:11;;;;;;;7.50;6.90;;;20.10;60.10;;;;;;5050869;28;20185;-67
2022/06/06 06:58:48;;;;;;;8.05;6.72;;;20.20;60.10;;;;;;5051861;28;20179;-66
2022/06/06 07:08:32;;;;;;;7.00;6.38;;;20.10;60.00;;;;;;5051047;28;20171;-65
2022/06/06 07:11:09;;;;;;;7.65;6.70;;;20.20;59.90;;;;;;5066426;28;20590;-66
2022/06/06 07:13:43;;;;;;;6.88;6.28;;;20.30;59.90;;;;;;5050145;28;20218;-66
2022/06/06 07:16:20;;;;;;;6.38;5.60;;;20.30;59.70;;;;;;5050713;28;20174;-66
2022/06/06 07:18:45;;;;;;;7.55;6.05;;;20.30;59.60;;;;;;5058517;28;20249;-66
2022/06/06 07:21:12;;;;;;;6.65;5.88;;;20.30;59.70;;;;;;5053419;28;20285;-66
2022/06/06 07:23:39;;;;;;;5.68;5.18;;;20.30;59.60;;;;;;5053991;28;20175;-67
2022/06/06 07:26:04;;;;;;;6.50;5.90;;;20.30;59.60;;;;;;5073871;28;20261;-66
2022/06/06 07:28:30;;;;;;;8.48;6.10;;;20.30;59.50;;;;;;5073452;28;20253;-67
2022/06/06 07:31:12;;;;;;;5.72;5.10;;;20.40;59.50;;;;;;5065158;28;20175;-69
2022/06/06 07:33:50;;;;;;;9.90;5.82;;;20.40;60.30;;;;;;5054284;28;20207;-69
2022/06/06 07:36:18;;;;;;;8.05;5.18;;;20.40;59.60;;;;;;5054829;28;20544;-67
2022/06/06 07:38:58;;;;;;;6.53;4.82;;;20.50;59.60;;;;;;5055287;28;20249;-66
2022/06/06 07:41:48;;;;;;;6.00;5.40;;;20.40;60.40;;;;;;5059637;28;20245;-67
2022/06/06 07:44:17;;;;;;;7.95;5.30;;;20.40;59.60;;;;;;5058082;28;20535;-68
2022/06/06 07:47:05;;;;;;;5.68;5.15;;;20.40;59.50;;;;;;5075034;28;20204;-67
2022/06/06 07:49:38;;;;;;;6.13;4.85;;;20.40;59.40;;;;;;5033462;28;20522;-69
2022/06/06 07:52:24;;;;;;;5.97;5.00;;;20.50;59.30;;;;;;5035527;28;20255;-68
2022/06/06 07:55:01;;;;;;;5.07;4.63;;;20.50;59.50;;;;;;5034264;28;20201;-68
2022/06/06 07:57:51;;;;;;;6.13;4.65;;;20.50;59.30;;;;;;5034627;28;20206;-68
2022/06/06 08:00:19;;;;;;;7.32;4.68;;;20.50;59.20;;;;;;5035471;28;20176;-66
2022/06/06 08:02:59;;;;;;;5.40;4.78;;;20.50;59.30;;;;;;5034614;28;20231;-68
2022/06/06 08:05:46;;;;;;;5.80;4.38;;;20.50;59.20;;;;;;5033375;28;20176;-69
2022/06/06 08:08:30;;;;;;;6.15;4.47;;;20.50;59.10;;;;;;5035125;28;20171;-69
2022/06/06 08:10:57;;;;;;;4.05;3.65;;;20.60;59.10;;;;;;5033800;28;20222;-69
2022/06/06 08:13:37;;;;;;;4.35;3.95;;;20.70;59.00;;;;;;5033719;28;20303;-68
2022/06/06 08:16:03;;;;;;;6.47;4.35;;;20.70;58.90;;;;;;5054228;28;20178;-69
2022/06/06 08:18:55;;;;;;;5.95;3.90;;;20.70;59.90;;;;;;5073647;28;20166;-67
2022/06/06 08:21:46;;;;;;;5.50;3.92;;;20.60;59.30;;;;;;5071213;28;20183;-69
2022/06/06 08:24:23;;;;;;;4.95;3.65;;;20.60;59.30;;;;;;5054735;28;20171;-70
2022/06/06 08:26:49;;;;;;;3.97;3.58;;;20.70;59.30;;;;;;5054376;28;20186;-71
2022/06/06 08:29:15;;;;;;;3.55;3.25;;;20.70;58.90;;;;;;5036431;28;20171;-70
2022/06/06 08:31:40;;;;;;;4.13;3.15;;;20.70;58.60;;;;;;5052186;28;20665;-68
2022/06/06 08:34:06;;;;;;;5.35;3.30;;;20.80;58.70;;;;;;5054647;28;20184;-69
2022/06/06 08:36:57;;;;;;;4.43;3.40;;;20.70;58.50;;;;;;5054682;28;20173;-69
2022/06/06 08:39:49;;;;;;;5.25;3.35;;;20.70;58.70;;;;;;5052261;28;20174;-69
2022/06/06 08:42:45;;;;;;;3.78;3.05;;;20.70;58.70;;;;;;5053031;28;20556;-69
2022/06/06 08:45:24;;;;;;;6.35;3.58;;;20.80;58.40;;;;;;5054285;28;20190;-70
2022/06/06 08:48:23;;;;;;;4.82;2.60;;;20.80;58.40;;;;;;5053944;28;20255;-71
2022/06/06 08:51:22;;;;;;;5.57;2.95;;;20.80;58.50;;;;;;5052645;28;20548;-69
2022/06/06 08:54:18;;;;;;;3.15;2.85;;;20.80;58.50;;;;;;5053047;28;20689;-70
2022/06/06 08:57:01;;;;;;;4.97;2.70;;;20.80;58.50;;;;;;5053618;28;20208;-69
2022/06/06 08:59:48;;;;;;;2.85;2.58;;;20.80;58.50;;;;;;5051809;28;20221;-67
2022/06/06 09:02:38;;;;;;;3.05;2.65;;;20.80;58.40;;;;;;5054426;28;20226;-67
2022/06/06 09:05:31;;;;;;;4.80;2.70;;;20.80;58.00;;;;;;5053963;28;20202;-68
2022/06/06 09:08:11;;;;;;;5.57;3.08;;;20.80;58.30;;;;;;5052834;28;20186;-67
2022/06/06 09:11:06;;;;;;;4.18;2.45;;;20.80;58.60;;;;;;5053481;28;20215;-67
2022/06/06 09:14:05;;;;;;;4.18;2.60;;;20.80;58.70;;;;;;5052069;28;20211;-67
2022/06/06 09:16:51;;;;;;;2.17;1.95;;;20.80;58.40;;;;;;5067066;28;20171;-66
2022/06/06 09:19:31;;;;;;;3.72;2.42;;;20.80;57.90;;;;;;5062222;28;20182;-66
2022/06/06 09:22:15;;;;;;;2.50;2.30;;;20.90;57.80;;;;;;5063729;28;20179;-67
2022/06/06 09:25:19;;;;;;;6.68;2.72;;;20.90;57.80;;;;;;5052689;28;20179;-66
2022/06/06 09:28:18;;;;;;;3.80;2.30;;;20.90;57.80;;;;;;5041858;28;20193;-66
2022/06/06 09:30:56;;;;;;;2.70;2.50;;;21.00;57.80;;;;;;5052939;28;20665;-68
2022/06/06 09:33:45;;;;;;;2.42;2.10;;;21.00;57.90;;;;;;5053204;28;20226;-68
2022/06/06 09:36:29;;;;;;;3.15;2.00;;;21.00;57.90;;;;;;5051385;28;20186;-65
2022/06/06 09:39:13;;;;;;;3.58;2.28;;;21.10;57.90;;;;;;5052542;28;20613;-66
2022/06/06 09:41:57;;;;;;;2.47;1.98;;;21.00;57.90;;;;;;5051425;28;20183;-68
2022/06/06 09:44:42;;;;;;;4.00;2.30;;;21.00;58.10;;;;;;5051894;28;20723;-68
2022/06/06 09:47:17;;;;;;;2.88;2.20;;;20.90;58.20;;;;;;5052685;28;20676;-71
2022/06/06 09:49:54;;;;;;;5.93;2.50;;;20.90;59.00;;;;;;5052076;28;20191;-70
2022/06/06 09:52:44;;;;;;;3.70;2.22;;;20.90;58.40;;;;;;5051760;28;20727;-70
2022/06/06 10:01:48;;;;;;;3.08;1.90;;;20.80;58.40;;;;;;5052024;28;20254;-71
2022/06/06 10:04:22;;;;;;;3.20;1.80;;;20.90;58.20;;;;;;5052259;28;20178;-73
2022/06/06 10:07:06;;;;;;;2.17;1.90;;;21.00;58.00;;;;;;5052581;28;20273;-72
2022/06/06 10:09:53;;;;;;;3.63;1.85;;;20.90;57.90;;;;;;5051878;28;20210;-69
2022/06/06 10:12:36;;;;;;;4.70;2.35;;;21.00;58.00;;;;;;5035846;28;20215;-66
2022/06/06 10:15:22;;;;;;;4.35;2.03;;;21.00;57.70;;;;;;5052726;28;20204;-67
2022/06/06 10:18:22;;;;;;;2.05;1.77;;;21.10;57.60;;;;;;5070649;28;20518;-66
2022/06/06 10:21:05;;;;;;;2.92;1.88;;;21.00;57.60;;;;;;5071315;28;20232;-66
2022/06/06 10:23:34;;;;;;;4.22;1.92;;;21.00;57.80;;;;;;5032685;28;20644;-67
2022/06/06 10:26:07;;;;;;;3.67;1.75;;;21.00;57.70;;;;;;5031805;28;20183;-67
2022/06/06 10:28:55;;;;;;;3.85;1.90;;;21.00;57.50;;;;;;5031449;28;20254;-66
2022/06/06 10:32:07;;;;;;;2.05;1.95;;;21.00;57.60;;;;;;5032123;28;20180;-67
2022/06/06 10:34:41;;;;;;;1.90;1.80;;;21.00;58.10;;;;;;5030455;28;20282;-66
2022/06/06 10:37:25;;;;;;;3.28;2.05;;;21.00;57.50;;;;;;5030414;28;20217;-67
2022/06/06 10:40:01;;;;;;;2.60;1.70;;;20.90;57.60;;;;;;5030797;28;20195;-67
2022/06/06 10:42:49;;;;;;;2.55;1.85;;;21.00;57.50;;;;;;5031360;28;20528;-66
2022/06/06 10:45:31;;;;;;;3.42;1.90;;;21.10;57.30;;;;;;5030846;28;20180;-67
2022/06/06 10:48:15;;;;;;;1.58;1.50;;;21.00;57.30;;;;;;5032340;28;20218;-69
2022/06/06 10:54:27;;;;;;;2.00;1.77;;;21.00;57.50;;;;;;5033042;28;20257;-67
2022/06/06 10:57:01;;;;;;;2.20;2.03;;;21.00;57.30;;;;;;5034863;28;20192;-67
2022/06/06 10:59:57;;;;;;;1.98;1.75;;;21.10;57.10;;;;;;5035892;28;20179;-66
2022/06/06 11:02:41;;;;;;;2.08;1.90;;;21.20;57.00;;;;;;5035309;28;20231;-65
2022/06/06 11:05:13;;;;;;;3.88;2.53;;;21.20;56.90;;;;;;5036240;28;20207;-69
2022/06/06 11:08:07;;;;;;;2.47;1.65;;;21.20;56.80;;;;;;5033929;28;20985;-69
2022/06/06 11:10:55;;;;;;;5.40;1.90;;;21.20;57.00;;;;;;5036201;28;20724;-69
2022/06/06 11:13:26;;;;;;;3.10;2.03;;;21.10;57.20;;;;;;5033971;28;20222;-70
2022/06/06 11:15:52;;;;;;;3.67;1.80;;;21.00;57.30;;;;;;5050276;28;20193;-69
2022/06/06 11:18:56;;;;;;;4.97;1.90;;;21.00;57.60;;;;;;5075719;28;20174;-69
2022/06/06 11:22:03;;;;;;;2.85;1.90;;;21.00;57.80;;;;;;5059730;28;20207;-70
2022/06/06 11:25:04;;;;;;;2.30;2.10;;;21.00;57.60;;;;;;5054686;28;20271;-69
2022/06/06 11:27:52;;;;;;;2.20;2.00;;;21.10;57.50;;;;;;5054315;28;20205;-70
2022/06/06 11:30:43;;;;;;;2.08;1.98;;;21.10;57.60;;;;;;5054445;28;20175;-70
2022/06/06 11:33:35;;;;;;;2.25;1.85;;;21.10;57.70;;;;;;5055142;28;20704;-72
2022/06/06 11:36:18;;;;;;;2.25;1.90;;;21.10;57.80;;;;;;5053360;28;20182;-71
2022/06/06 11:38:53;;;;;;;2.28;2.08;;;21.10;57.80;;;;;;5053888;28;20167;-69
2022/06/06 11:41:33;;;;;;;5.43;2.20;;;21.10;57.60;;;;;;5053577;28;20220;-70
2022/06/06 11:44:22;;;;;;;3.17;2.30;;;21.20;57.40;;;;;;5053711;28;20763;-70
2022/06/06 11:47:05;;;;;;;4.40;2.10;;;21.20;57.30;;;;;;5054877;28;20174;-70
2022/06/06 11:49:51;;;;;;;7.65;1.85;;;21.20;57.30;;;;;;5038178;28;20487;-72
2022/06/06 11:52:47;;;;;;;2.25;2.05;;;21.20;57.30;;;;;;5055168;28;20294;-72
2022/06/06 11:55:22;;;;;;;3.88;2.42;;;21.30;57.10;;;;;;5054020;28;20187;-71
2022/06/06 11:58:08;;;;;;;4.07;2.40;;;21.30;57.10;;;;;;5054517;28;20181;-70
2022/06/06 12:00:42;;;;;;;3.88;2.20;;;21.30;57.00;;;;;;5055107;28;20163;-70
2022/06/06 12:03:45;;;;;;;3.60;1.95;;;21.30;56.90;;;;;;5052787;28;20245;-71
2022/06/06 12:06:14;;;;;;;2.53;1.90;;;21.30;57.00;;;;;;5053497;28;20182;-71
2022/06/06 12:09:02;;;;;;;2.33;2.10;;;21.30;57.00;;;;;;5045223;28;20753;-70
2022/06/06 12:11:31;;;;;;;2.00;1.90;;;21.20;57.20;;;;;;5052331;28;20179;-69
2022/06/06 12:14:16;;;;;;;2.20;1.98;;;21.10;57.30;;;;;;5053919;28;20258;-69
2022/06/06 12:16:42;;;;;;;2.78;2.05;;;21.10;57.30;;;;;;5063746;28;20178;-69
2022/06/06 12:19:26;;;;;;;5.47;2.08;;;21.00;57.40;;;;;;5074600;28;20182;-69
2022/06/06 12:22:17;;;;;;;3.80;2.25;;;21.00;57.50;;;;;;5066055;28;20661;-69
2022/06/06 12:25:19;;;;;;;3.35;2.15;;;20.90;57.40;;;;;;5053313;28;20182;-69
2022/06/06 12:28:09;;;;;;;3.55;2.28;;;20.90;57.50;;;;;;5054148;28;20179;-67
2022/06/06 12:31:12;;;;;;;2.28;2.08;;;20.90;57.40;;;;;;5052437;28;20261;-69
2022/06/06 12:33:40;;;;;;;4.80;2.38;;;20.90;57.40;;;;;;5054102;28;20215;-70
2022/06/06 12:36:14;;;;;;;2.42;2.03;;;21.00;57.30;;;;;;5054319;28;20175;-71
2022/06/06 12:39:01;;;;;;;3.03;2.10;;;21.00;57.30;;;;;;5053919;28;20198;-68
2022/06/06 12:41:59;;;;;;;3.25;2.15;;;21.00;57.30;;;;;;5053156;28;20175;-70
2022/06/06 12:44:46;;;;;;;2.30;2.10;;;20.90;57.30;;;;;;5054199;28;20171;-71
2022/06/06 12:47:26;;;;;;;2.90;1.70;;;20.90;57.60;;;;;;5054329;28;20170;-71
2022/06/06 12:50:06;;;;;;;3.42;2.15;;;20.90;57.40;;;;;;5052863;28;20187;-71
2022/06/06 12:52:57;;;;;;;4.80;1.95;;;21.00;57.50;;;;;;5035760;28;20591;-71
2022/06/06 12:55:33;;;;;;;2.70;1.88;;;20.90;57.40;;;;;;5054254;28;20171;-71
2022/06/06 12:58:14;;;;;;;3.45;1.80;;;21.00;57.40;;;;;;5053708;28;20186;-69
2022/06/06 13:03:59;;;;;;;3.15;1.80;;;21.00;57.30;;;;;;5040164;28;20277;-70
2022/06/06 13:06:55;;;;;;;3.60;1.60;;;20.90;57.30;;;;;;5053029;28;20179;-70
2022/06/06 13:09:37;;;;;;;1.60;1.50;;;21.00;57.30;;;;;;5053772;28;20614;-70
2022/06/06 13:12:40;;;;;;;1.63;1.40;;;21.00;57.20;;;;;;5052357;28;20210;-67
2022/06/06 13:15:20;;;;;;;3.25;1.77;;;21.00;57.10;;;;;;5051768;28;20171;-67
2022/06/06 13:17:57;;;;;;;1.60;1.50;;;21.10;57.20;;;;;;5049186;28;20171;-67
2022/06/06 13:20:40;;;;;;;2.92;1.88;;;21.10;57.20;;;;;;5052507;28;20214;-67
2022/06/06 13:23:27;;;;;;;2.88;1.75;;;21.10;57.10;;;;;;5050303;28;20163;-67
2022/06/06 13:26:13;;;;;;;2.00;1.65;;;21.10;57.20;;;;;;5051714;28;20262;-67
2022/06/06 13:28:46;;;;;;;1.45;1.33;;;21.00;57.10;;;;;;5051573;28;20179;-66
2022/06/06 13:31:37;;;;;;;4.07;1.60;;;21.00;57.20;;;;;;5053366;28;20239;-68
2022/06/06 13:34:24;;;;;;;2.55;1.50;;;21.00;57.20;;;;;;5051954;28;20190;-68
2022/06/06 13:36:57;;;;;;;2.53;1.42;;;21.00;57.20;;;;;;5052994;28;20175;-69
2022/06/06 13:39:34;;;;;;;2.25;1.65;;;21.10;57.00;;;;;;5053187;28;20474;-69
2022/06/06 13:42:03;;;;;;;3.08;1.65;;;21.10;56.90;;;;;;5052643;28;20174;-68
2022/06/06 13:44:44;;;;;;;1.58;1.35;;;21.10;56.90;;;;;;5053309;28;20175;-68
2022/06/06 13:47:41;;;;;;;1.75;1.65;;;21.10;56.90;;;;;;5053212;28;20713;-70
2022/06/06 13:50:07;;;;;;;1.65;1.50;;;21.10;56.90;;;;;;5051249;28;20194;-69
2022/06/06 13:52:57;;;;;;;2.72;1.55;;;21.10;56.90;;;;;;5052663;28;20238;-68
2022/06/06 13:55:29;;;;;;;1.42;1.33;;;21.10;56.90;;;;;;5052489;28;20175;-68
2022/06/06 13:58:16;;;;;;;1.88;1.30;;;21.10;56.90;;;;;;5052539;28;20175;-67
2022/06/06 14:00:56;;;;;;;1.48;1.05;;;21.00;56.90;;;;;;5052814;28;20270;-67
2022/06/06 14:03:48;;;;;;;2.50;1.27;;;21.00;57.00;;;;;;5051022;28;20227;-68
2022/06/06 14:06:16;;;;;;;2.00;1.17;;;21.00;56.90;;;;;;5051690;28;20175;-68